createdAt,value
2023-02-08T00:01:49.631Z,2.95
2023-02-08T00:04:16.257Z,3.97
2023-02-08T00:06:42.995Z,4.13
2023-02-08T00:09:09.614Z,3.30
2023-02-08T00:11:36.289Z,3.57
2023-02-08T00:14:03.102Z,4.97
2023-02-08T00:16:29.814Z,2.87
2023-02-08T00:18:56.435Z,2.38
2023-02-08T00:21:23.073Z,2.97
2023-02-08T00:23:49.809Z,3.90
2023-02-08T00:26:16.684Z,3.30
2023-02-08T00:28:43.347Z,3.20
2023-02-08T00:31:10.060Z,2.43
2023-02-08T00:33:36.766Z,3.90
2023-02-08T00:36:06.085Z,3.23
2023-02-08T00:38:32.845Z,3.20
2023-02-08T00:40:59.680Z,3.53
2023-02-08T00:43:26.481Z,2.33
2023-02-08T00:46:00.274Z,4.67
2023-02-08T00:48:27.636Z,2.70
2023-02-08T00:50:58.160Z,3.93
2023-02-08T00:53:24.898Z,2.60
2023-02-08T00:55:52.901Z,4.30
2023-02-08T00:58:19.576Z,2.97
2023-02-08T01:00:46.252Z,2.83
2023-02-08T01:03:12.944Z,4.03
2023-02-08T01:05:39.835Z,2.80
2023-02-08T01:08:06.445Z,4.07
2023-02-08T01:10:33.399Z,2.70
2023-02-08T01:13:00.064Z,3.20
2023-02-08T01:15:26.692Z,3.33
2023-02-08T01:17:57.358Z,3.97
2023-02-08T01:20:24.794Z,2.90
2023-02-08T01:22:51.503Z,2.80
2023-02-08T01:25:18.186Z,4.03
2023-02-08T01:27:44.844Z,3.03
2023-02-08T01:30:12.127Z,5.37
2023-02-08T01:32:38.779Z,6.60
2023-02-08T01:35:05.935Z,2.93
2023-02-08T01:37:32.622Z,1.80
2023-02-08T01:39:59.232Z,5.93
2023-02-08T01:42:25.945Z,1.80
2023-02-08T01:45:23.524Z,2.77
2023-02-08T01:47:58.141Z,3.07
2023-02-08T01:50:30.789Z,2.00
2023-02-08T01:52:58.025Z,2.37
2023-02-08T01:55:29.932Z,4.30
2023-02-08T01:58:01.979Z,3.37
2023-02-08T02:00:28.674Z,2.87
2023-02-08T02:02:58.726Z,4.00
2023-02-08T02:05:34.170Z,2.03
2023-02-08T02:08:01.323Z,3.37
2023-02-08T02:10:32.477Z,3.17
2023-02-08T02:13:08.327Z,3.30
2023-02-08T02:15:35.404Z,3.37
2023-02-08T02:18:05.534Z,2.10
2023-02-08T02:20:56.775Z,4.07
2023-02-08T02:24:05.744Z,2.60
2023-02-08T02:27:10.977Z,2.07
2023-02-08T02:30:12.897Z,3.37
2023-02-08T02:33:36.871Z,3.53
2023-02-08T02:36:09.090Z,2.63
2023-02-08T02:39:12.946Z,2.43
2023-02-08T02:42:05.121Z,2.10
2023-02-08T02:45:16.834Z,2.77
2023-02-08T02:48:02.253Z,2.93
2023-02-08T02:50:41.493Z,4.70
2023-02-08T02:53:18.623Z,3.45
2023-02-08T02:56:00.973Z,4.30
2023-02-08T02:58:28.603Z,4.75
2023-02-08T03:00:57.929Z,3.20
2023-02-08T03:03:27.890Z,2.77
2023-02-08T03:06:00.854Z,3.57
2023-02-08T03:08:42.303Z,3.20
2023-02-08T03:11:25.417Z,3.60
2023-02-08T03:14:30.833Z,4.23
2023-02-08T03:17:23.988Z,3.47
2023-02-08T03:19:56.051Z,3.17
2023-02-08T03:22:56.969Z,3.60
2023-02-08T03:25:29.830Z,3.63
2023-02-08T03:28:08.938Z,4.63
2023-02-08T03:30:55.840Z,2.70
2023-02-08T03:33:34.626Z,4.10
2023-02-08T03:36:23.357Z,2.77
2023-02-08T03:38:52.702Z,3.83
2023-02-08T03:41:26.485Z,3.92
2023-02-08T03:44:01.900Z,3.88
2023-02-08T03:46:34.213Z,3.65
2023-02-08T03:49:08.828Z,3.45
2023-02-08T03:51:37.282Z,3.75
2023-02-08T03:54:12.087Z,3.27
2023-02-08T03:56:38.605Z,2.83
2023-02-08T03:59:12.181Z,4.28
2023-02-08T04:01:46.213Z,4.17
2023-02-08T04:04:15.411Z,3.45
2023-02-08T04:06:42.189Z,4.10
2023-02-08T04:09:08.844Z,5.63
2023-02-08T04:11:35.488Z,4.77
2023-02-08T04:14:02.136Z,3.63
2023-02-08T04:16:28.806Z,2.95
2023-02-08T04:18:55.522Z,4.23
2023-02-08T04:21:22.090Z,4.40
2023-02-08T04:23:48.807Z,3.93
2023-02-08T04:26:15.533Z,4.13
2023-02-08T04:28:42.170Z,4.60
2023-02-08T04:31:08.853Z,3.57
2023-02-08T04:33:35.546Z,3.57
2023-02-08T04:36:02.138Z,4.20
2023-02-08T04:38:28.777Z,3.90
2023-02-08T04:40:55.422Z,3.17
2023-02-08T04:43:22.133Z,4.90
2023-02-08T04:45:51.295Z,4.10
2023-02-08T04:48:18.662Z,3.90
2023-02-08T04:50:45.367Z,3.87
2023-02-08T04:53:12.285Z,5.90
2023-02-08T04:55:38.966Z,4.13
2023-02-08T04:58:05.613Z,3.60
2023-02-08T05:00:32.264Z,2.67
2023-02-08T05:02:59.288Z,4.23
2023-02-08T05:05:27.744Z,5.03
2023-02-08T05:07:54.514Z,5.87
2023-02-08T05:10:21.318Z,4.07
2023-02-08T05:12:48.325Z,3.50
2023-02-08T05:15:14.991Z,4.97
2023-02-08T05:17:41.692Z,4.87
2023-02-08T05:20:10.003Z,4.83
2023-02-08T05:22:36.649Z,3.23
2023-02-08T05:25:03.816Z,3.27
2023-02-08T05:27:30.527Z,5.77
2023-02-08T05:29:59.022Z,4.83
2023-02-08T05:32:25.867Z,4.10
2023-02-08T05:34:52.537Z,5.17
2023-02-08T05:37:19.208Z,5.93
2023-02-08T05:39:45.887Z,5.63
2023-02-08T05:42:12.593Z,4.40
2023-02-08T05:44:39.755Z,4.77
2023-02-08T05:47:06.415Z,7.67
2023-02-08T05:49:33.075Z,5.77
2023-02-08T05:51:59.787Z,6.37
2023-02-08T05:54:26.472Z,7.73
2023-02-08T05:56:53.189Z,5.50
2023-02-08T05:59:19.780Z,7.07
2023-02-08T06:01:46.440Z,6.77
2023-02-08T06:04:13.164Z,7.37
2023-02-08T06:06:39.832Z,6.00
2023-02-08T06:09:06.523Z,8.43
2023-02-08T06:11:33.723Z,7.17
2023-02-08T06:14:00.431Z,7.10
2023-02-08T06:16:27.133Z,8.00
2023-02-08T06:18:54.322Z,8.70
2023-02-08T06:21:22.373Z,6.40
2023-02-08T06:23:50.267Z,6.90
2023-02-08T06:26:16.894Z,6.03
2023-02-08T06:28:43.597Z,5.53
2023-02-08T06:31:10.243Z,6.07
2023-02-08T06:33:36.974Z,5.97
2023-02-08T06:36:03.708Z,4.93
2023-02-08T06:38:30.344Z,5.57
2023-02-08T06:40:57.029Z,5.33
2023-02-08T06:43:23.645Z,3.97
2023-02-08T06:45:50.292Z,4.63
2023-02-08T06:48:17.089Z,3.87
2023-02-08T06:50:44.320Z,5.20
2023-02-08T06:53:11.149Z,4.00
2023-02-08T06:55:37.798Z,4.37
2023-02-08T06:58:04.567Z,4.60
2023-02-08T07:00:31.384Z,3.70
2023-02-08T07:02:58.953Z,4.60
2023-02-08T07:05:25.551Z,5.73
2023-02-08T07:07:53.615Z,4.33
2023-02-08T07:10:20.425Z,4.97
2023-02-08T07:12:47.049Z,6.30
2023-02-08T07:15:13.873Z,4.87
2023-02-08T07:17:40.560Z,4.50
2023-02-08T07:20:08.506Z,4.33
2023-02-08T07:22:35.192Z,2.97
2023-02-08T07:25:02.058Z,4.93
2023-02-08T07:27:28.690Z,3.90
2023-02-08T07:29:55.402Z,2.87
2023-02-08T07:32:22.052Z,2.97
2023-02-08T07:34:48.728Z,3.93
2023-02-08T07:37:15.399Z,2.30
2023-02-08T07:39:42.107Z,3.65
2023-02-08T07:42:09.884Z,3.70
2023-02-08T07:44:40.092Z,5.03
2023-02-08T07:47:06.881Z,5.07
2023-02-08T07:49:34.020Z,5.27
2023-02-08T07:52:02.186Z,5.23
2023-02-08T07:54:29.210Z,4.27
2023-02-08T07:56:56.453Z,3.10
2023-02-08T07:59:23.236Z,3.20
2023-02-08T08:01:49.843Z,3.57
2023-02-08T08:04:16.767Z,3.88
2023-02-08T08:06:43.482Z,5.40
2023-02-08T08:09:10.071Z,3.27
2023-02-08T08:11:36.667Z,3.93
2023-02-08T08:14:03.444Z,3.30
2023-02-08T08:16:30.084Z,4.17
2023-02-08T08:18:56.802Z,4.03
2023-02-08T08:21:23.677Z,3.47
2023-02-08T08:23:50.333Z,3.17
2023-02-08T08:26:19.767Z,5.23
2023-02-08T08:28:47.406Z,3.63
2023-02-08T08:31:17.165Z,3.93
2023-02-08T08:33:44.360Z,3.53
2023-02-08T08:36:11.228Z,4.93
2023-02-08T08:38:39.471Z,3.87
2023-02-08T08:41:18.287Z,3.73
2023-02-08T08:43:45.860Z,2.37
2023-02-08T08:46:13.033Z,4.47
2023-02-08T08:48:40.004Z,4.47
2023-02-08T08:51:06.982Z,4.07
2023-02-08T08:53:34.639Z,4.90
2023-02-08T08:56:02.005Z,5.10
2023-02-08T08:58:28.718Z,5.07
2023-02-08T09:01:01.000Z,4.07
2023-02-08T09:03:28.969Z,4.00
2023-02-08T09:05:55.636Z,3.37
2023-02-08T09:08:22.495Z,2.90
2023-02-08T09:10:49.132Z,5.40
2023-02-08T09:13:19.611Z,3.63
2023-02-08T09:15:46.598Z,3.50
2023-02-08T09:18:13.326Z,4.53
2023-02-08T09:20:40.896Z,3.07
2023-02-08T09:23:07.694Z,4.87
2023-02-08T09:25:34.396Z,6.27
2023-02-08T09:28:01.039Z,5.47
2023-02-08T09:30:27.713Z,8.17
2023-02-08T09:32:54.324Z,5.90
2023-02-08T09:35:20.946Z,4.40
2023-02-08T09:37:47.571Z,3.60
2023-02-08T09:40:26.214Z,1.93
2023-02-08T09:43:17.864Z,2.93
2023-02-08T09:46:00.151Z,4.77
2023-02-08T09:48:36.176Z,3.27
2023-02-08T09:51:24.724Z,2.97
2023-02-08T09:53:57.899Z,3.17
2023-02-08T09:56:33.066Z,2.97
2023-02-08T09:59:01.068Z,3.33
2023-02-08T10:01:31.366Z,2.70
2023-02-08T10:04:06.414Z,4.83
2023-02-08T10:06:33.157Z,6.17
2023-02-08T10:09:04.614Z,5.33
2023-02-08T10:11:52.126Z,4.03
2023-02-08T10:14:49.281Z,5.13
2023-02-08T10:17:37.342Z,6.10
2023-02-08T10:20:09.915Z,5.43
2023-02-08T10:22:42.546Z,5.53
2023-02-08T10:25:37.082Z,3.60
2023-02-08T10:28:09.886Z,3.30
2023-02-08T10:31:16.662Z,3.53
2023-02-08T10:33:52.130Z,3.97
2023-02-08T10:36:22.048Z,3.53
2023-02-08T10:38:53.080Z,5.13
2023-02-08T10:41:25.104Z,3.93
2023-02-08T10:43:59.802Z,4.07
2023-02-08T10:46:32.586Z,3.10
2023-02-08T10:49:31.874Z,4.10
2023-02-08T10:51:58.585Z,3.83
2023-02-08T10:54:25.209Z,3.83
2023-02-08T10:57:03.074Z,4.00
2023-02-08T10:59:51.199Z,3.17
2023-02-08T11:02:41.938Z,4.53
2023-02-08T11:05:14.323Z,4.43
2023-02-08T11:07:41.879Z,3.50
2023-02-08T11:10:20.298Z,3.33
2023-02-08T11:13:05.692Z,3.23
2023-02-08T11:15:49.091Z,4.17
2023-02-08T11:18:39.578Z,4.73
2023-02-08T11:21:29.508Z,3.80
2023-02-08T11:23:57.783Z,3.83
2023-02-08T11:26:31.694Z,4.33
2023-02-08T11:29:11.946Z,6.07
2023-02-08T11:31:40.864Z,7.63
2023-02-08T11:34:11.533Z,4.03
2023-02-08T11:36:46.938Z,3.67
2023-02-08T11:39:39.663Z,4.37
2023-02-08T11:42:07.525Z,3.60
2023-02-08T11:44:37.222Z,4.20
2023-02-08T11:47:08.022Z,3.03
2023-02-08T11:49:40.712Z,3.87
2023-02-08T11:52:23.635Z,4.50
2023-02-08T11:54:50.272Z,3.07
2023-02-08T11:57:16.941Z,4.77
2023-02-08T11:59:43.815Z,5.10
2023-02-08T12:02:37.075Z,6.40
2023-02-08T12:05:11.265Z,3.23
2023-02-08T12:07:49.954Z,4.17
2023-02-08T12:10:19.594Z,4.77
2023-02-08T12:13:25.071Z,5.73
2023-02-08T12:16:09.853Z,4.93
2023-02-08T12:19:04.724Z,7.10
2023-02-08T12:22:11.806Z,6.73
2023-02-08T12:25:09.787Z,4.40
2023-02-08T12:28:02.075Z,2.63
2023-02-08T12:30:37.163Z,2.70
2023-02-08T12:33:17.198Z,2.57
2023-02-08T12:36:04.774Z,2.63
2023-02-08T12:39:17.077Z,5.03
2023-02-08T12:41:55.690Z,2.53
2023-02-08T12:44:57.796Z,3.33
2023-02-08T12:48:03.294Z,4.50
2023-02-08T12:50:48.740Z,3.47
2023-02-08T12:53:25.851Z,2.97
2023-02-08T12:55:55.392Z,2.37
2023-02-08T12:58:45.703Z,3.60
2023-02-08T13:01:22.856Z,2.63
2023-02-08T13:04:03.058Z,2.90
2023-02-08T13:06:40.061Z,2.90
2023-02-08T13:09:24.967Z,2.83
2023-02-08T13:12:02.475Z,1.93
2023-02-08T13:14:34.135Z,3.47
2023-02-08T13:17:26.088Z,2.43
2023-02-08T13:20:00.934Z,1.80
2023-02-08T13:22:32.086Z,2.50
2023-02-08T13:25:07.613Z,2.47
2023-02-08T13:27:34.771Z,3.37
2023-02-08T13:30:03.289Z,3.47
2023-02-08T13:32:31.278Z,4.33
2023-02-08T13:35:06.510Z,6.33
2023-02-08T13:37:35.752Z,6.07
2023-02-08T13:40:17.766Z,6.47
2023-02-08T13:42:50.754Z,6.67
2023-02-08T13:45:34.935Z,2.27
2023-02-08T13:48:11.570Z,5.40
2023-02-08T13:50:45.753Z,3.40
2023-02-08T13:53:14.872Z,4.17
2023-02-08T13:55:55.808Z,2.83
2023-02-08T13:58:35.370Z,3.80
2023-02-08T14:01:13.918Z,2.83
2023-02-08T14:03:41.162Z,3.07
2023-02-08T14:06:19.369Z,3.27
2023-02-08T14:09:21.214Z,3.30
2023-02-08T14:11:50.014Z,2.07
2023-02-08T14:14:30.293Z,2.07
2023-02-08T14:17:11.750Z,2.60
2023-02-08T14:19:42.471Z,3.67
2023-02-08T14:22:12.174Z,2.43
2023-02-08T14:24:41.491Z,3.03
2023-02-08T14:27:22.822Z,2.70
2023-02-08T14:30:32.570Z,1.93
2023-02-08T14:33:05.148Z,4.40
2023-02-08T14:35:34.536Z,3.00
2023-02-08T14:38:19.491Z,2.43
2023-02-08T14:40:51.552Z,2.10
2023-02-08T14:43:20.966Z,2.43
2023-02-08T14:45:50.633Z,2.40
2023-02-08T14:48:26.484Z,2.93
2023-02-08T14:51:11.335Z,3.17
2023-02-08T14:53:44.491Z,3.50
2023-02-08T14:56:39.460Z,3.33
2023-02-08T14:59:14.080Z,2.23
2023-02-08T15:01:59.610Z,2.97
2023-02-08T15:04:27.408Z,2.00
2023-02-08T15:07:05.865Z,3.23
2023-02-08T15:09:37.443Z,4.13
2023-02-08T15:12:28.063Z,2.97
2023-02-08T15:14:57.246Z,3.60
2023-02-08T15:17:45.409Z,3.93
2023-02-08T15:20:29.753Z,2.67
2023-02-08T15:23:05.061Z,3.97
2023-02-08T15:25:37.035Z,5.27
2023-02-08T15:28:18.472Z,9.40
2023-02-08T15:30:46.324Z,3.33
2023-02-08T15:33:18.082Z,3.33
2023-02-08T15:35:46.123Z,7.20
2023-02-08T15:38:20.443Z,9.83
2023-02-08T15:41:07.051Z,3.80
2023-02-08T15:43:35.212Z,6.60
2023-02-08T15:46:04.734Z,7.07
2023-02-08T15:48:33.020Z,9.03
2023-02-08T15:51:02.048Z,13.93
2023-02-08T15:53:30.825Z,10.60
2023-02-08T15:56:01.968Z,8.10
2023-02-08T15:58:34.169Z,4.27
2023-02-08T16:01:03.831Z,9.50
2023-02-08T16:03:31.317Z,5.93
2023-02-08T16:06:04.971Z,5.67
2023-02-08T16:08:39.624Z,2.87
2023-02-08T16:11:27.960Z,1.83
2023-02-08T16:13:58.135Z,2.43
2023-02-08T16:16:37.459Z,4.67
2023-02-08T16:19:05.223Z,3.90
2023-02-08T16:21:36.127Z,3.40
2023-02-08T16:24:05.902Z,3.43
2023-02-08T16:26:50.380Z,4.27
2023-02-08T16:29:24.122Z,2.47
2023-02-08T16:32:01.360Z,3.27
2023-02-08T16:34:29.582Z,2.93
2023-02-08T16:36:56.296Z,3.27
2023-02-08T16:39:56.032Z,3.20
2023-02-08T16:42:40.014Z,3.47
2023-02-08T16:45:14.472Z,1.63
2023-02-08T16:47:53.024Z,1.93
2023-02-08T16:50:25.126Z,2.37
2023-02-08T16:52:55.916Z,1.90
2023-02-08T16:55:26.173Z,2.53
2023-02-08T16:57:55.268Z,2.83
2023-02-08T17:00:35.573Z,3.73
2023-02-08T17:03:02.485Z,2.17
2023-02-08T17:05:32.199Z,3.50
2023-02-08T17:07:59.336Z,3.13
2023-02-08T17:10:29.354Z,1.47
2023-02-08T17:13:09.835Z,2.33
2023-02-08T17:15:48.420Z,4.50
2023-02-08T17:18:16.062Z,4.73
2023-02-08T17:20:43.233Z,3.23
2023-02-08T17:23:10.474Z,6.27
2023-02-08T17:25:37.454Z,3.67
2023-02-08T17:28:16.017Z,3.43
2023-02-08T17:30:44.312Z,5.00
2023-02-08T17:33:18.286Z,3.43
2023-02-08T17:35:50.595Z,3.47
2023-02-08T17:38:18.593Z,2.37
2023-02-08T17:40:45.816Z,1.73
2023-02-08T17:43:13.337Z,3.40
2023-02-08T17:45:41.925Z,3.23
2023-02-08T17:48:09.280Z,2.13
2023-02-08T17:50:36.477Z,2.77
2023-02-08T17:53:04.094Z,3.77
2023-02-08T17:55:31.070Z,2.67
2023-02-08T17:57:57.765Z,1.83
2023-02-08T18:00:25.357Z,2.57
2023-02-08T18:02:55.014Z,1.73
2023-02-08T18:05:25.044Z,1.80
2023-02-08T18:07:53.571Z,2.90
2023-02-08T18:10:20.965Z,2.50
2023-02-08T18:12:47.666Z,2.87
2023-02-08T18:15:18.049Z,2.63
2023-02-08T18:17:44.901Z,3.33
2023-02-08T18:20:14.277Z,4.27
2023-02-08T18:22:42.789Z,4.20
2023-02-08T18:25:10.843Z,4.13
2023-02-08T18:27:37.728Z,5.17
2023-02-08T18:30:04.874Z,4.13
2023-02-08T18:32:31.570Z,4.80
2023-02-08T18:34:58.641Z,3.80
2023-02-08T18:37:25.286Z,4.93
2023-02-08T18:39:52.327Z,3.30
2023-02-08T18:42:19.127Z,5.37
2023-02-08T18:44:45.827Z,3.85
2023-02-08T18:47:12.574Z,3.83
2023-02-08T18:49:42.236Z,6.37
2023-02-08T18:52:10.916Z,7.67
2023-02-08T18:54:38.962Z,5.03
2023-02-08T18:57:06.361Z,4.87
2023-02-08T18:59:33.616Z,9.77
2023-02-08T19:02:01.753Z,10.63
2023-02-08T19:04:29.314Z,8.83
2023-02-08T19:06:56.080Z,7.93
2023-02-08T19:09:22.733Z,6.90
2023-02-08T19:11:49.618Z,5.70
2023-02-08T19:14:16.303Z,4.63
2023-02-08T19:16:43.290Z,6.33
2023-02-08T19:19:10.525Z,5.90
2023-02-08T19:21:37.264Z,5.80
2023-02-08T19:24:04.745Z,4.43
2023-02-08T19:26:39.725Z,4.80
2023-02-08T19:29:13.388Z,4.77
2023-02-08T19:31:40.802Z,5.20
2023-02-08T19:34:07.600Z,3.37
2023-02-08T19:36:38.420Z,4.43
2023-02-08T19:39:07.353Z,3.53
2023-02-08T19:42:06.051Z,3.87
2023-02-08T19:44:32.751Z,2.10
2023-02-08T19:46:59.594Z,3.90
2023-02-08T19:49:27.376Z,4.80
2023-02-08T19:51:54.812Z,3.10
2023-02-08T19:54:22.065Z,3.77
2023-02-08T19:56:50.421Z,4.30
2023-02-08T19:59:23.151Z,3.97
2023-02-08T20:01:50.506Z,3.90
2023-02-08T20:04:17.214Z,5.03
2023-02-08T20:06:47.399Z,7.63
2023-02-08T20:09:15.732Z,6.80
2023-02-08T20:11:56.463Z,6.53
2023-02-08T20:14:25.144Z,8.60
2023-02-08T20:16:51.919Z,6.93
2023-02-08T20:19:18.759Z,7.03
2023-02-08T20:21:45.550Z,7.50
2023-02-08T20:24:12.753Z,5.53
2023-02-08T20:26:41.250Z,7.33
2023-02-08T20:29:08.799Z,6.03
2023-02-08T20:31:38.006Z,7.30
2023-02-08T20:34:07.886Z,7.20
2023-02-08T20:36:49.693Z,8.73
2023-02-08T20:39:21.739Z,6.70
2023-02-08T20:41:48.485Z,8.00
2023-02-08T20:44:17.515Z,8.80
2023-02-08T20:46:44.707Z,3.87
2023-02-08T20:49:21.449Z,4.77
2023-02-08T20:51:51.950Z,5.63
2023-02-08T20:54:19.279Z,5.25
2023-02-08T20:56:45.846Z,6.60
2023-02-08T20:59:15.847Z,6.13
2023-02-08T21:01:44.002Z,6.65
2023-02-08T21:04:12.315Z,7.53
2023-02-08T21:06:39.751Z,7.68
2023-02-08T21:09:10.029Z,5.87
2023-02-08T21:11:37.285Z,8.07
2023-02-08T21:14:04.885Z,6.93
2023-02-08T21:16:32.488Z,7.70
2023-02-08T21:18:59.485Z,4.93
2023-02-08T21:21:26.805Z,5.45
2023-02-08T21:23:53.709Z,4.18
2023-02-08T21:26:21.640Z,5.07
2023-02-08T21:28:52.393Z,3.92
2023-02-08T21:31:22.280Z,3.40
2023-02-08T21:33:49.874Z,5.03
2023-02-08T21:36:19.365Z,3.47
2023-02-08T21:38:47.148Z,4.18
2023-02-08T21:41:25.610Z,4.68
2023-02-08T21:43:55.119Z,4.65
2023-02-08T21:46:23.213Z,2.88
2023-02-08T21:49:08.423Z,3.70
2023-02-08T21:51:54.161Z,3.38
2023-02-08T21:54:41.944Z,3.42
2023-02-08T21:57:14.432Z,5.20
2023-02-08T21:59:42.356Z,2.88
2023-02-08T22:02:14.169Z,3.53
2023-02-08T22:04:59.897Z,5.35
2023-02-08T22:07:28.232Z,1.75
2023-02-08T22:09:55.055Z,4.40
2023-02-08T22:12:23.202Z,3.80
2023-02-08T22:14:50.523Z,3.53
2023-02-08T22:17:17.278Z,4.83
2023-02-08T22:19:44.084Z,3.42
2023-02-08T22:22:11.488Z,6.95
2023-02-08T22:24:38.623Z,3.87
2023-02-08T22:27:05.520Z,3.65
2023-02-08T22:29:32.673Z,3.70
2023-02-08T22:31:59.582Z,3.90
2023-02-08T22:34:27.602Z,6.55
2023-02-08T22:36:54.553Z,5.73
2023-02-08T22:39:21.348Z,6.63
2023-02-08T22:41:48.146Z,5.63
2023-02-08T22:44:15.198Z,4.70
2023-02-08T22:46:41.828Z,4.57
2023-02-08T22:49:08.971Z,5.07
2023-02-08T22:51:36.113Z,4.23
2023-02-08T22:54:02.975Z,4.87
2023-02-08T22:56:29.713Z,6.57
2023-02-08T22:58:56.556Z,4.30
2023-02-08T23:01:23.318Z,5.38
2023-02-08T23:03:50.200Z,3.75
2023-02-08T23:06:17.471Z,4.07
2023-02-08T23:08:44.197Z,5.32
2023-02-08T23:11:12.965Z,4.70
2023-02-08T23:13:39.669Z,4.43
2023-02-08T23:16:06.568Z,5.45
2023-02-08T23:18:35.415Z,3.88
2023-02-08T23:21:06.850Z,3.55
2023-02-08T23:23:33.558Z,5.15
2023-02-08T23:26:00.202Z,3.85
2023-02-08T23:28:27.097Z,3.50
2023-02-08T23:30:53.809Z,3.83
2023-02-08T23:33:20.493Z,2.65
2023-02-08T23:35:47.127Z,3.38
2023-02-08T23:38:13.748Z,2.63
2023-02-08T23:40:41.476Z,4.13
2023-02-08T23:43:08.434Z,5.65
2023-02-08T23:45:36.349Z,3.30
2023-02-08T23:48:03.018Z,3.20
2023-02-08T23:50:29.624Z,3.65
2023-02-08T23:52:56.610Z,3.27
2023-02-08T23:55:23.748Z,2.00
2023-02-08T23:57:50.776Z,3.67
